CBY302 VTCP-VTCN
Flight info
| Callsign | CBY302 |
|---|---|
| Flight time | 0h 17m |
| Altitude | 9000 |
| Route | 1808N10010E DCT DUGEL DCT ASUBI |
| Aircraft | AT76/M-SDFGIRY/S |
Departure
| Time | 2026-05-07 18:08 |
|---|---|
| Airport | Phrae Airport (VTCP) |
Arrival
| Time | 2026-05-07 18:25 |
|---|---|
| Airport | Nan Airport (VTCN) |
| Time | Latitude | Longitude | Altitude | Speed | Heading |
|---|---|---|---|---|---|
| 2026-05-07 17:56 | 18.13170 | 100.16285 | 547 ft | 0 kts | 6° |
| 2026-05-07 18:02 | 18.13179 | 100.16289 | 547 ft | 1 kts | 43° |
| 2026-05-07 18:02 | 18.13181 | 100.16303 | 547 ft | 5 kts | 82° |
| 2026-05-07 18:02 | 18.13181 | 100.16344 | 548 ft | 6 kts | 94° |
| 2026-05-07 18:03 | 18.13178 | 100.16385 | 549 ft | 5 kts | 96° |
| 2026-05-07 18:03 | 18.13174 | 100.16424 | 549 ft | 5 kts | 96° |
| 2026-05-07 18:03 | 18.13156 | 100.16451 | 549 ft | 6 kts | 150° |
| 2026-05-07 18:03 | 18.13072 | 100.16453 | 549 ft | 15 kts | 185° |
| 2026-05-07 18:04 | 18.12971 | 100.16443 | 550 ft | 14 kts | 186° |
| 2026-05-07 18:04 | 18.12883 | 100.16434 | 550 ft | 12 kts | 185° |
| 2026-05-07 18:04 | 18.12804 | 100.16426 | 550 ft | 11 kts | 185° |
| 2026-05-07 18:04 | 18.12736 | 100.16419 | 551 ft | 10 kts | 186° |
| 2026-05-07 18:05 | 18.12670 | 100.16413 | 553 ft | 10 kts | 185° |
| 2026-05-07 18:05 | 18.12610 | 100.16396 | 554 ft | 8 kts | 208° |
| 2026-05-07 18:05 | 18.12568 | 100.16375 | 555 ft | 3 kts | 184° |
| 2026-05-07 18:05 | 18.12564 | 100.16383 | 555 ft | 3 kts | 116° |
| 2026-05-07 18:06 | 18.12569 | 100.16401 | 555 ft | 5 kts | 47° |
| 2026-05-07 18:06 | 18.12582 | 100.16405 | 555 ft | 0 kts | 4° |
| 2026-05-07 18:07 | 18.12601 | 100.16407 | 554 ft | 19 kts | 5° |
| 2026-05-07 18:07 | 18.12908 | 100.16441 | 550 ft | 70 kts | 5° |
| 2026-05-07 18:07 | 18.13571 | 100.16505 | 555 ft | 119 kts | 5° |
| 2026-05-07 18:08 | 18.14471 | 100.16607 | 799 ft | 135 kts | 6° |
| 2026-05-07 18:08 | 18.15465 | 100.16695 | 1110 ft | 153 kts | 2° |
| 2026-05-07 18:08 | 18.16567 | 100.16723 | 1447 ft | 168 kts | 1° |
| 2026-05-07 18:08 | 18.17654 | 100.16740 | 1771 ft | 179 kts | 360° |
| 2026-05-07 18:09 | 18.18911 | 100.16729 | 2272 ft | 182 kts | 359° |
| 2026-05-07 18:09 | 18.20184 | 100.16703 | 2754 ft | 184 kts | 358° |
| 2026-05-07 18:09 | 18.21460 | 100.16772 | 3192 ft | 186 kts | 19° |
| 2026-05-07 18:09 | 18.22424 | 100.17639 | 3620 ft | 187 kts | 66° |
| 2026-05-07 18:10 | 18.22817 | 100.18932 | 4058 ft | 187 kts | 64° |
| 2026-05-07 18:10 | 18.23534 | 100.20082 | 4481 ft | 189 kts | 56° |
| 2026-05-07 18:10 | 18.24251 | 100.21250 | 4891 ft | 190 kts | 59° |
| 2026-05-07 18:10 | 18.24915 | 100.22455 | 5330 ft | 190 kts | 61° |
| 2026-05-07 18:11 | 18.25535 | 100.23667 | 5757 ft | 190 kts | 62° |
| 2026-05-07 18:11 | 18.26162 | 100.24910 | 6189 ft | 190 kts | 62° |
| 2026-05-07 18:11 | 18.26777 | 100.26122 | 6474 ft | 190 kts | 62° |
| 2026-05-07 18:11 | 18.27402 | 100.27350 | 6724 ft | 191 kts | 62° |
| 2026-05-07 18:12 | 18.28029 | 100.28580 | 6971 ft | 191 kts | 61° |
| 2026-05-07 18:12 | 18.28658 | 100.29816 | 7222 ft | 192 kts | 61° |
| 2026-05-07 18:12 | 18.29281 | 100.31044 | 7462 ft | 192 kts | 62° |
| 2026-05-07 18:12 | 18.29911 | 100.32290 | 7707 ft | 193 kts | 62° |
| 2026-05-07 18:13 | 18.30543 | 100.33534 | 7943 ft | 193 kts | 61° |
| 2026-05-07 18:13 | 18.31182 | 100.34788 | 8181 ft | 194 kts | 61° |
| 2026-05-07 18:13 | 18.31824 | 100.36041 | 8422 ft | 195 kts | 61° |
| 2026-05-07 18:13 | 18.32457 | 100.37281 | 8664 ft | 195 kts | 61° |
| 2026-05-07 18:14 | 18.33100 | 100.38542 | 8893 ft | 196 kts | 61° |
| 2026-05-07 18:14 | 18.33750 | 100.39821 | 9038 ft | 202 kts | 61° |
| 2026-05-07 18:14 | 18.34426 | 100.41154 | 9095 ft | 211 kts | 61° |
| 2026-05-07 18:14 | 18.35131 | 100.42554 | 9119 ft | 221 kts | 62° |
| 2026-05-07 18:15 | 18.35862 | 100.44014 | 9128 ft | 229 kts | 62° |
| 2026-05-07 18:15 | 18.36619 | 100.45515 | 9134 ft | 236 kts | 61° |
| 2026-05-07 18:15 | 18.37407 | 100.47079 | 8970 ft | 243 kts | 62° |
| 2026-05-07 18:15 | 18.38187 | 100.48656 | 8821 ft | 243 kts | 62° |
| 2026-05-07 18:16 | 18.38975 | 100.50227 | 8667 ft | 242 kts | 62° |
| 2026-05-07 18:16 | 18.39767 | 100.51792 | 8521 ft | 241 kts | 61° |
| 2026-05-07 18:16 | 18.40558 | 100.53352 | 8372 ft | 241 kts | 61° |
| 2026-05-07 18:16 | 18.41342 | 100.54900 | 8229 ft | 240 kts | 61° |
| 2026-05-07 18:17 | 18.42116 | 100.56427 | 8112 ft | 239 kts | 61° |
| 2026-05-07 18:17 | 18.42898 | 100.57965 | 7989 ft | 237 kts | 62° |
| 2026-05-07 18:17 | 18.43673 | 100.59498 | 7866 ft | 237 kts | 62° |
| 2026-05-07 18:17 | 18.44450 | 100.61025 | 7754 ft | 236 kts | 62° |
| 2026-05-07 18:18 | 18.44960 | 100.62032 | 7679 ft | 235 kts | 62° |
| 2026-05-07 18:18 | 18.45725 | 100.63547 | 7570 ft | 234 kts | 62° |
| 2026-05-07 18:18 | 18.46491 | 100.65059 | 7465 ft | 234 kts | 62° |
| 2026-05-07 18:18 | 18.47263 | 100.66580 | 7337 ft | 237 kts | 61° |
| 2026-05-07 18:19 | 18.48318 | 100.67898 | 7086 ft | 245 kts | 32° |
| 2026-05-07 18:19 | 18.49907 | 100.68533 | 6833 ft | 250 kts | 12° |
| 2026-05-07 18:19 | 18.51655 | 100.68795 | 6563 ft | 255 kts | 5° |
| 2026-05-07 18:19 | 18.53432 | 100.68936 | 6296 ft | 254 kts | 4° |
| 2026-05-07 18:20 | 18.55172 | 100.69066 | 6012 ft | 248 kts | 4° |
| 2026-05-07 18:20 | 18.56877 | 100.69201 | 5729 ft | 243 kts | 4° |
| 2026-05-07 18:20 | 18.58542 | 100.69399 | 5456 ft | 237 kts | 12° |
| 2026-05-07 18:20 | 18.60088 | 100.69964 | 5189 ft | 234 kts | 22° |
| 2026-05-07 18:21 | 18.61583 | 100.70630 | 4907 ft | 231 kts | 22° |
| 2026-05-07 18:21 | 18.63000 | 100.71271 | 4633 ft | 212 kts | 22° |
| 2026-05-07 18:21 | 18.64315 | 100.71837 | 4366 ft | 195 kts | 21° |
| 2026-05-07 18:21 | 18.65507 | 100.72319 | 4186 ft | 179 kts | 20° |
| 2026-05-07 18:22 | 18.66676 | 100.72780 | 3989 ft | 180 kts | 19° |
| 2026-05-07 18:22 | 18.67460 | 100.73089 | 3807 ft | 177 kts | 20° |
| 2026-05-07 18:22 | 18.68987 | 100.73691 | 3471 ft | 176 kts | 20° |
| 2026-05-07 18:22 | 18.70134 | 100.74140 | 3209 ft | 175 kts | 20° |
| 2026-05-07 18:23 | 18.71280 | 100.74574 | 2911 ft | 173 kts | 20° |
| 2026-05-07 18:23 | 18.72394 | 100.74992 | 2597 ft | 166 kts | 20° |
| 2026-05-07 18:23 | 18.73456 | 100.75404 | 2279 ft | 159 kts | 20° |
| 2026-05-07 18:23 | 18.74464 | 100.75796 | 1967 ft | 154 kts | 21° |
| 2026-05-07 18:24 | 18.75454 | 100.76180 | 1710 ft | 143 kts | 21° |
| 2026-05-07 18:24 | 18.76344 | 100.76529 | 1573 ft | 133 kts | 22° |
| 2026-05-07 18:24 | 18.77204 | 100.76905 | 1302 ft | 135 kts | 22° |
| 2026-05-07 18:24 | 18.78065 | 100.77262 | 1142 ft | 131 kts | 21° |
| 2026-05-07 18:25 | 18.78912 | 100.77588 | 996 ft | 128 kts | 20° |
| 2026-05-07 18:25 | 18.79733 | 100.77919 | 807 ft | 127 kts | 22° |
| 2026-05-07 18:25 | 18.80545 | 100.78244 | 718 ft | 114 kts | 21° |
| 2026-05-07 18:25 | 18.81011 | 100.78430 | 716 ft | 31 kts | 21° |
| 2026-05-07 18:26 | 18.81109 | 100.78504 | 716 ft | 9 kts | 102° |
| 2026-05-07 18:26 | 18.81088 | 100.78567 | 716 ft | 9 kts | 111° |
| 2026-05-07 18:26 | 18.81047 | 100.78619 | 716 ft | 11 kts | 154° |
| 2026-05-07 18:26 | 18.80963 | 100.78644 | 716 ft | 13 kts | 165° |
| 2026-05-07 18:27 | 18.80876 | 100.78653 | 710 ft | 12 kts | 205° |
| 2026-05-07 18:27 | 18.80790 | 100.78601 | 715 ft | 15 kts | 211° |
| 2026-05-07 18:27 | 18.80719 | 100.78557 | 714 ft | 13 kts | 210° |
| 2026-05-07 18:27 | 18.80650 | 100.78514 | 714 ft | 11 kts | 210° |
| 2026-05-07 18:28 | 18.80576 | 100.78469 | 717 ft | 15 kts | 210° |
| 2026-05-07 18:28 | 18.80490 | 100.78424 | 709 ft | 9 kts | 179° |
| 2026-05-07 18:28 | 18.80459 | 100.78453 | 719 ft | 5 kts | 121° |
| 2026-05-07 18:28 | 18.80455 | 100.78460 | 715 ft | 0 kts | 122° |